Time;durP1;ratioP1;P1;durP2;ratioP2;P2;SDS_P1;SDS_P2;PMS_P1;PMS_P2;Temp;Humidity;BMP_temperature;BMP_pressure;BME280_temperature;BME280_humidity;BME280_pressure;Samples;Min_cycle;Max_cycle;Signal;HPM_P1;HPM_P2
2023/12/08 00:00:52;;;;;;;18.30;10.38;;;;;;;;;;5030770;28;20349;-86
2023/12/08 00:03:18;;;;;;;21.80;11.80;;;;;;;;;;5032151;28;20032;-87
2023/12/08 00:05:43;;;;;;;20.33;9.53;;;;;;;;;;5030491;28;20113;-86
2023/12/08 00:08:08;;;;;;;18.50;9.77;;;;;;;;;;5030349;28;20053;-86
2023/12/08 00:10:33;;;;;;;20.33;10.30;;;;;;;;;;5030640;28;20065;-86
2023/12/08 00:12:59;;;;;;;18.50;10.00;;;;;;;;;;5031588;28;20029;-87
2023/12/08 00:15:24;;;;;;;25.75;11.70;;;;;;;;;;5031197;28;20079;-86
2023/12/08 00:17:49;;;;;;;17.80;9.67;;;;;;;;;;5029771;28;20462;-86
2023/12/08 00:20:15;;;;;;;23.63;10.27;;;;;;;;;;5011261;28;20025;-86
2023/12/08 00:22:40;;;;;;;23.00;11.33;;;;;;;;;;5025253;28;20037;-86
2023/12/08 00:25:05;;;;;;;24.70;10.73;;;;;;;;;;5030100;28;20033;-86
2023/12/08 00:27:30;;;;;;;19.77;10.47;;;;;;;;;;5030193;28;20030;-87
2023/12/08 00:29:55;;;;;;;21.10;10.17;;;;;;;;;;5030263;28;20029;-86
2023/12/08 00:32:21;;;;;;;23.97;11.47;;;;;;;;;;5031408;28;20489;-86
2023/12/08 00:34:46;;;;;;;22.03;10.57;;;;;;;;;;5030790;28;20021;-86
2023/12/08 00:37:11;;;;;;;20.80;11.00;;;;;;;;;;5030781;28;20088;-87
2023/12/08 00:39:36;;;;;;;22.90;10.70;;;;;;;;;;5030254;28;20051;-86
2023/12/08 00:42:02;;;;;;;19.70;10.13;;;;;;;;;;5029352;28;20017;-86
2023/12/08 00:44:27;;;;;;;19.80;10.60;;;;;;;;;;5030241;28;20505;-86
2023/12/08 00:46:52;;;;;;;24.40;13.00;;;;;;;;;;5007453;28;20025;-86
2023/12/08 00:49:18;;;;;;;23.37;12.47;;;;;;;;;;5011057;28;20169;-86
2023/12/08 00:51:43;;;;;;;19.97;11.07;;;;;;;;;;5028173;28;20045;-86
2023/12/08 00:54:08;;;;;;;22.43;11.10;;;;;;;;;;5030460;28;20465;-86
2023/12/08 00:56:33;;;;;;;22.33;11.25;;;;;;;;;;5029165;28;20019;-86
2023/12/08 00:58:59;;;;;;;22.40;10.73;;;;;;;;;;5030350;28;20032;-86
2023/12/08 01:01:24;;;;;;;19.10;9.77;;;;;;;;;;5030531;28;20017;-86
2023/12/08 01:03:49;;;;;;;23.90;13.03;;;;;;;;;;5029832;28;20485;-86
2023/12/08 01:06:14;;;;;;;21.97;10.30;;;;;;;;;;5030451;28;20534;-87
2023/12/08 01:08:39;;;;;;;21.23;11.53;;;;;;;;;;5029109;28;20508;-87
2023/12/08 01:11:06;;;;;;;18.97;9.47;;;;;;;;;;5029576;28;20036;-86
2023/12/08 01:13:32;;;;;;;19.92;10.20;;;;;;;;;;5028581;28;20044;-86
2023/12/08 01:15:57;;;;;;;20.23;10.47;;;;;;;;;;5030236;28;20108;-87
2023/12/08 01:18:22;;;;;;;19.43;9.90;;;;;;;;;;5028806;28;20804;-86
2023/12/08 01:20:48;;;;;;;20.23;9.70;;;;;;;;;;5029404;28;20033;-86
2023/12/08 01:23:13;;;;;;;18.03;8.87;;;;;;;;;;5029710;28;20083;-86
2023/12/08 01:25:38;;;;;;;20.10;10.73;;;;;;;;;;5030506;28;20029;-86
2023/12/08 01:28:03;;;;;;;21.77;9.37;;;;;;;;;;5015656;28;20088;-86
2023/12/08 01:30:29;;;;;;;18.37;10.00;;;;;;;;;;5022065;28;20032;-86
2023/12/08 01:32:54;;;;;;;19.83;10.50;;;;;;;;;;5029365;28;20018;-86
2023/12/08 01:35:19;;;;;;;17.53;9.13;;;;;;;;;;5023191;28;20058;-86
2023/12/08 01:37:44;;;;;;;20.00;10.47;;;;;;;;;;5019221;28;20017;-86
2023/12/08 01:40:11;;;;;;;21.30;10.03;;;;;;;;;;5013261;28;20033;-86
2023/12/08 01:42:37;;;;;;;19.75;9.90;;;;;;;;;;5029376;28;20040;-87
2023/12/08 01:45:03;;;;;;;20.17;10.33;;;;;;;;;;5029766;28;20056;-85
2023/12/08 01:47:28;;;;;;;21.65;10.52;;;;;;;;;;5023187;28;20021;-85
2023/12/08 01:49:53;;;;;;;17.42;9.45;;;;;;;;;;5029398;28;20386;-85
2023/12/08 01:52:22;;;;;;;19.73;10.37;;;;;;;;;;5029327;28;20477;-86
2023/12/08 01:54:54;;;;;;;19.23;10.30;;;;;;;;;;5029918;28;20021;-85
2023/12/08 01:57:19;;;;;;;20.25;10.55;;;;;;;;;;5022230;28;20025;-86
2023/12/08 01:59:45;;;;;;;22.38;10.27;;;;;;;;;;5009931;28;20022;-86
2023/12/08 02:02:11;;;;;;;21.20;10.63;;;;;;;;;;5017205;28;20048;-85
2023/12/08 02:04:36;;;;;;;22.90;11.97;;;;;;;;;;5009910;28;20459;-85
2023/12/08 02:07:01;;;;;;;20.23;11.13;;;;;;;;;;5009512;28;20025;-85
2023/12/08 02:09:26;;;;;;;24.27;11.75;;;;;;;;;;5025054;28;20101;-86
2023/12/08 02:11:52;;;;;;;23.57;12.30;;;;;;;;;;5028636;28;20417;-85
2023/12/08 02:14:17;;;;;;;22.17;11.10;;;;;;;;;;5027526;28;20053;-86
2023/12/08 02:16:49;;;;;;;19.90;10.47;;;;;;;;;;5028564;28;20117;-85
2023/12/08 02:19:15;;;;;;;22.17;11.38;;;;;;;;;;5029568;28;20025;-86
2023/12/08 02:21:41;;;;;;;23.80;12.00;;;;;;;;;;5032865;28;20025;-85
2023/12/08 02:24:06;;;;;;;22.10;10.73;;;;;;;;;;5033704;28;20702;-86
2023/12/08 02:26:31;;;;;;;18.17;9.93;;;;;;;;;;5032381;28;20037;-85
2023/12/08 02:28:56;;;;;;;22.27;11.37;;;;;;;;;;5032464;28;20021;-85
2023/12/08 02:31:29;;;;;;;23.20;11.53;;;;;;;;;;5032892;28;20064;-86
2023/12/08 02:33:54;;;;;;;22.90;12.23;;;;;;;;;;5015193;28;20037;-85
2023/12/08 02:36:20;;;;;;;25.30;12.27;;;;;;;;;;5032353;28;20134;-85
2023/12/08 02:38:50;;;;;;;26.02;11.52;;;;;;;;;;5032074;28;20022;-85
2023/12/08 02:41:15;;;;;;;26.60;12.43;;;;;;;;;;5031342;28;20030;-85
2023/12/08 02:43:41;;;;;;;26.80;13.13;;;;;;;;;;5014775;28;20640;-85
2023/12/08 02:46:06;;;;;;;23.47;11.43;;;;;;;;;;5032771;28;20045;-86
2023/12/08 02:48:31;;;;;;;28.83;13.07;;;;;;;;;;5032123;28;20053;-85
2023/12/08 02:50:56;;;;;;;25.17;12.23;;;;;;;;;;5032089;28;20017;-85
2023/12/08 02:53:22;;;;;;;25.87;12.43;;;;;;;;;;5032206;28;20060;-86
2023/12/08 02:55:48;;;;;;;26.43;12.70;;;;;;;;;;5014652;28;20018;-85
2023/12/08 02:58:13;;;;;;;25.00;11.50;;;;;;;;;;5032549;28;20037;-85
2023/12/08 03:00:38;;;;;;;25.67;12.80;;;;;;;;;;5031768;28;20026;-86
2023/12/08 03:03:04;;;;;;;27.20;12.67;;;;;;;;;;5029098;28;20030;-85
2023/12/08 03:05:29;;;;;;;26.27;12.57;;;;;;;;;;5013148;28;20398;-85
2023/12/08 03:07:54;;;;;;;31.63;14.53;;;;;;;;;;5020547;28;20021;-86
2023/12/08 03:10:19;;;;;;;25.90;12.30;;;;;;;;;;5018349;28;20032;-85
2023/12/08 03:12:44;;;;;;;30.40;12.80;;;;;;;;;;5032115;28;20071;-85
2023/12/08 03:15:10;;;;;;;29.87;13.47;;;;;;;;;;5032333;28;20045;-85
2023/12/08 03:17:35;;;;;;;29.37;12.63;;;;;;;;;;5024705;28;20735;-85
2023/12/08 03:20:01;;;;;;;30.20;12.63;;;;;;;;;;5012300;28;20018;-85
2023/12/08 03:22:26;;;;;;;33.43;14.80;;;;;;;;;;5011784;28;20071;-85
2023/12/08 03:24:51;;;;;;;28.83;14.10;;;;;;;;;;5014714;28;20036;-85
2023/12/08 03:27:16;;;;;;;28.33;13.30;;;;;;;;;;5028329;28;20110;-85
2023/12/08 03:29:42;;;;;;;27.47;13.27;;;;;;;;;;5030042;28;20025;-85
2023/12/08 03:32:07;;;;;;;28.03;13.27;;;;;;;;;;5029773;28;20126;-85
2023/12/08 03:34:34;;;;;;;23.73;12.35;;;;;;;;;;5033225;28;20025;-85
2023/12/08 03:36:59;;;;;;;33.10;14.97;;;;;;;;;;5013255;28;20441;-85
2023/12/08 03:39:24;;;;;;;30.43;13.17;;;;;;;;;;5030423;28;20371;-85
2023/12/08 03:41:49;;;;;;;27.10;12.80;;;;;;;;;;5032147;28;20024;-85
2023/12/08 03:44:15;;;;;;;31.53;13.77;;;;;;;;;;5031679;28;20029;-85
2023/12/08 03:46:43;;;;;;;28.47;12.97;;;;;;;;;;5031430;28;20030;-85
2023/12/08 03:49:08;;;;;;;29.55;14.57;;;;;;;;;;5031551;28;20461;-85
2023/12/08 03:51:34;;;;;;;27.07;12.87;;;;;;;;;;5030921;28;20028;-86
2023/12/08 03:53:59;;;;;;;33.40;15.33;;;;;;;;;;5029115;28;20029;-85
2023/12/08 03:56:24;;;;;;;31.67;14.87;;;;;;;;;;5020755;28;20033;-85
2023/12/08 03:58:49;;;;;;;38.10;16.40;;;;;;;;;;5012688;28;20112;-85
2023/12/08 04:01:17;;;;;;;32.03;14.03;;;;;;;;;;5031154;28;20022;-86
2023/12/08 04:03:43;;;;;;;27.80;14.32;;;;;;;;;;5031415;28;20040;-84
2023/12/08 04:06:08;;;;;;;29.63;14.77;;;;;;;;;;5031888;28;20369;-85
2023/12/08 04:08:33;;;;;;;33.90;14.50;;;;;;;;;;5024608;28;20025;-84
2023/12/08 04:10:59;;;;;;;32.87;15.23;;;;;;;;;;5024963;28;20013;-84
2023/12/08 04:13:24;;;;;;;32.13;14.37;;;;;;;;;;5031281;28;20036;-84
2023/12/08 04:15:49;;;;;;;39.83;17.40;;;;;;;;;;5030660;28;20029;-84
2023/12/08 04:18:14;;;;;;;30.13;15.13;;;;;;;;;;5031169;28;20091;-84
2023/12/08 04:20:40;;;;;;;32.13;15.00;;;;;;;;;;5021357;28;20281;-84
2023/12/08 04:23:05;;;;;;;40.83;17.47;;;;;;;;;;5026913;28;20026;-84
2023/12/08 04:25:30;;;;;;;36.73;15.93;;;;;;;;;;5011055;28;20041;-84
2023/12/08 04:27:55;;;;;;;31.40;14.70;;;;;;;;;;5020150;28;20017;-85
2023/12/08 04:30:20;;;;;;;36.63;16.17;;;;;;;;;;5030494;28;20128;-84
2023/12/08 04:32:46;;;;;;;35.40;15.03;;;;;;;;;;5028638;28;20075;-84
2023/12/08 04:35:11;;;;;;;34.97;14.40;;;;;;;;;;5029969;28;20028;-84
2023/12/08 04:37:36;;;;;;;36.20;15.50;;;;;;;;;;5030218;28;20032;-84
2023/12/08 04:40:01;;;;;;;37.13;15.27;;;;;;;;;;5030530;28;20366;-84
2023/12/08 04:42:26;;;;;;;37.37;15.57;;;;;;;;;;5030066;28;20100;-85
2023/12/08 04:44:52;;;;;;;38.73;15.43;;;;;;;;;;5030869;28;20062;-84
2023/12/08 04:47:18;;;;;;;30.07;14.07;;;;;;;;;;5029271;28;20022;-85
2023/12/08 04:49:44;;;;;;;34.00;15.35;;;;;;;;;;5029376;28;20032;-84
2023/12/08 04:52:09;;;;;;;38.43;16.00;;;;;;;;;;5030446;28;20009;-85
2023/12/08 04:54:34;;;;;;;36.93;14.60;;;;;;;;;;5012071;28;20021;-84
2023/12/08 04:56:59;;;;;;;37.60;16.53;;;;;;;;;;5030279;28;20097;-84
2023/12/08 04:59:24;;;;;;;33.50;14.30;;;;;;;;;;5030134;28;20120;-84
2023/12/08 05:01:50;;;;;;;38.80;16.90;;;;;;;;;;5028646;28;20037;-84
2023/12/08 05:04:17;;;;;;;37.28;16.35;;;;;;;;;;5012538;28;20052;-84
2023/12/08 05:06:42;;;;;;;37.33;14.85;;;;;;;;;;5012565;28;20469;-85
2023/12/08 05:09:07;;;;;;;39.57;17.23;;;;;;;;;;5029071;28;20021;-84
2023/12/08 05:11:33;;;;;;;39.37;17.77;;;;;;;;;;5029551;28;20048;-84
2023/12/08 05:13:58;;;;;;;38.43;15.30;;;;;;;;;;5030415;28;20041;-84
2023/12/08 05:16:23;;;;;;;40.87;15.43;;;;;;;;;;5011881;28;20029;-84
2023/12/08 05:18:48;;;;;;;35.20;15.00;;;;;;;;;;5028769;28;20021;-84
2023/12/08 05:21:13;;;;;;;43.17;17.57;;;;;;;;;;5029468;28;20065;-85
2023/12/08 05:23:39;;;;;;;38.50;15.67;;;;;;;;;;5011906;28;20069;-84
2023/12/08 05:26:04;;;;;;;35.03;14.33;;;;;;;;;;5027364;28;20017;-84
2023/12/08 05:28:30;;;;;;;39.75;16.85;;;;;;;;;;5024961;28;20025;-84
2023/12/08 05:30:55;;;;;;;39.27;16.23;;;;;;;;;;5026667;28;20129;-84
2023/12/08 05:33:20;;;;;;;38.57;16.43;;;;;;;;;;5029076;28;20021;-84
2023/12/08 05:35:45;;;;;;;39.67;16.37;;;;;;;;;;5029221;28;20018;-84
2023/12/08 05:38:10;;;;;;;32.57;14.93;;;;;;;;;;5021696;28;20025;-83
2023/12/08 05:40:36;;;;;;;38.67;15.47;;;;;;;;;;5011485;28;20394;-84
2023/12/08 05:43:01;;;;;;;34.90;14.20;;;;;;;;;;5029799;28;20030;-84
2023/12/08 05:45:27;;;;;;;34.77;14.87;;;;;;;;;;5030246;28;20024;-84
2023/12/08 05:47:52;;;;;;;34.80;13.03;;;;;;;;;;5028941;28;20613;-84
2023/12/08 05:50:17;;;;;;;39.92;15.07;;;;;;;;;;5011640;28;20382;-84
2023/12/08 05:52:43;;;;;;;34.23;14.03;;;;;;;;;;5028810;28;20418;-84
2023/12/08 05:55:08;;;;;;;41.43;17.03;;;;;;;;;;5013199;28;20478;-84
2023/12/08 05:57:33;;;;;;;41.73;16.57;;;;;;;;;;5024329;28;20534;-84
2023/12/08 05:59:58;;;;;;;37.00;15.10;;;;;;;;;;5015300;28;20036;-84
2023/12/08 06:02:25;;;;;;;38.17;16.33;;;;;;;;;;5013659;28;20806;-84
2023/12/08 06:04:50;;;;;;;30.83;13.35;;;;;;;;;;5014108;28;20033;-85
2023/12/08 06:07:15;;;;;;;29.83;13.50;;;;;;;;;;5022588;28;20075;-85
2023/12/08 06:09:40;;;;;;;30.93;13.83;;;;;;;;;;5012016;28;20136;-88
2023/12/08 06:12:06;;;;;;;35.57;13.23;;;;;;;;;;5011344;28;20026;-85
2023/12/08 06:14:31;;;;;;;41.93;15.10;;;;;;;;;;5012707;28;20446;-84
2023/12/08 06:16:56;;;;;;;33.00;14.63;;;;;;;;;;5012234;28;20504;-85
2023/12/08 06:19:21;;;;;;;38.23;15.93;;;;;;;;;;5031948;28;20036;-85
2023/12/08 06:21:46;;;;;;;35.40;14.07;;;;;;;;;;5031246;28;20037;-86
2023/12/08 06:24:12;;;;;;;38.07;15.50;;;;;;;;;;5030984;28;20128;-88
2023/12/08 06:26:38;;;;;;;33.85;14.02;;;;;;;;;;5031830;28;20025;-87
2023/12/08 06:29:03;;;;;;;37.83;14.75;;;;;;;;;;5030213;28;20101;-88
2023/12/08 06:31:28;;;;;;;41.97;16.87;;;;;;;;;;5033234;28;20047;-87
2023/12/08 06:33:53;;;;;;;35.43;15.57;;;;;;;;;;5034040;28;20033;-87
2023/12/08 06:36:19;;;;;;;37.53;16.00;;;;;;;;;;5031731;28;20018;-86
2023/12/08 06:38:44;;;;;;;36.43;14.10;;;;;;;;;;5031832;28;20018;-86
2023/12/08 06:41:09;;;;;;;39.60;15.20;;;;;;;;;;5014521;28;20025;-85
2023/12/08 06:43:34;;;;;;;40.73;14.57;;;;;;;;;;5032597;28;20064;-86
2023/12/08 06:46:01;;;;;;;37.43;15.73;;;;;;;;;;5015927;28;20022;-89
2023/12/08 06:48:27;;;;;;;39.92;16.10;;;;;;;;;;5015374;28;20025;-86
2023/12/08 06:50:52;;;;;;;42.37;14.93;;;;;;;;;;5022877;28;20029;-89
2023/12/08 06:53:17;;;;;;;45.97;16.75;;;;;;;;;;5033532;28;20028;-89
2023/12/08 06:55:43;;;;;;;41.33;14.77;;;;;;;;;;5015227;28;20037;-89
2023/12/08 06:58:08;;;;;;;41.17;16.10;;;;;;;;;;5030843;28;20028;-85
2023/12/08 07:00:33;;;;;;;49.53;17.60;;;;;;;;;;5030765;28;20029;-88
2023/12/08 07:02:58;;;;;;;43.40;16.70;;;;;;;;;;5032257;28;20037;-88
2023/12/08 07:05:23;;;;;;;54.70;21.27;;;;;;;;;;5014341;28;20547;-88
2023/12/08 07:07:49;;;;;;;51.00;18.57;;;;;;;;;;5031935;28;20486;-88
2023/12/08 07:10:15;;;;;;;46.57;17.40;;;;;;;;;;5023380;28;20025;-90
2023/12/08 07:12:40;;;;;;;47.55;18.88;;;;;;;;;;5031380;28;20037;-90
2023/12/08 07:15:06;;;;;;;56.70;16.00;;;;;;;;;;5033179;28;20013;-91
2023/12/08 07:17:31;;;;;;;43.93;16.80;;;;;;;;;;5015300;28;20026;-91
2023/12/08 07:19:56;;;;;;;40.93;15.83;;;;;;;;;;5022065;28;20362;-90
2023/12/08 07:22:21;;;;;;;46.30;18.17;;;;;;;;;;5027164;28;20045;-89
2023/12/08 07:24:46;;;;;;;42.27;16.80;;;;;;;;;;5033093;28;20040;-90
2023/12/08 07:27:11;;;;;;;62.50;24.90;;;;;;;;;;5032896;28;20026;-90
2023/12/08 07:29:37;;;;;;;56.60;20.37;;;;;;;;;;5025255;28;20021;-90
2023/12/08 07:32:03;;;;;;;45.93;18.10;;;;;;;;;;5027855;28;20025;-89
2023/12/08 07:34:28;;;;;;;43.58;16.05;;;;;;;;;;5014654;28;20022;-85
2023/12/08 07:36:53;;;;;;;48.53;16.60;;;;;;;;;;5032036;28;20075;-86
2023/12/08 07:39:18;;;;;;;51.43;21.13;;;;;;;;;;5031104;28;20072;-86
2023/12/08 07:41:44;;;;;;;50.50;18.40;;;;;;;;;;5030728;28;20438;-85
2023/12/08 07:44:09;;;;;;;50.73;17.17;;;;;;;;;;5031701;28;20033;-86
2023/12/08 07:46:34;;;;;;;42.90;18.00;;;;;;;;;;5031702;28;20025;-85
2023/12/08 07:48:59;;;;;;;48.27;17.40;;;;;;;;;;5028705;28;20026;-85
2023/12/08 07:51:25;;;;;;;53.27;18.20;;;;;;;;;;5022891;28;20473;-85
2023/12/08 07:53:50;;;;;;;47.83;16.10;;;;;;;;;;5024269;28;20027;-85
2023/12/08 07:56:15;;;;;;;41.00;16.23;;;;;;;;;;5012156;28;20014;-85
2023/12/08 07:58:40;;;;;;;44.57;16.23;;;;;;;;;;5008610;28;20393;-85
2023/12/08 08:01:05;;;;;;;50.77;17.60;;;;;;;;;;5019453;28;20041;-85
2023/12/08 08:03:31;;;;;;;48.57;16.63;;;;;;;;;;5011644;28;20425;-85
2023/12/08 08:05:56;;;;;;;51.13;17.30;;;;;;;;;;5029392;28;20049;-87
2023/12/08 08:08:21;;;;;;;50.33;17.40;;;;;;;;;;5030042;28;20021;-84
2023/12/08 08:10:46;;;;;;;56.03;19.73;;;;;;;;;;5028978;28;20045;-84
2023/12/08 08:13:12;;;;;;;65.20;20.90;;;;;;;;;;5031049;28;20477;-84
2023/12/08 08:15:37;;;;;;;63.97;21.37;;;;;;;;;;5031001;28;21900;-84
2023/12/08 08:18:02;;;;;;;56.70;18.30;;;;;;;;;;5028441;28;20044;-84
2023/12/08 08:20:27;;;;;;;63.20;19.43;;;;;;;;;;5029721;28;20114;-84
2023/12/08 08:22:52;;;;;;;64.33;20.83;;;;;;;;;;5020349;28;20085;-84
2023/12/08 08:25:18;;;;;;;68.57;19.53;;;;;;;;;;5021768;28;20029;-84
2023/12/08 08:27:43;;;;;;;70.03;20.00;;;;;;;;;;5030417;28;20037;-85
2023/12/08 08:30:08;;;;;;;60.83;20.23;;;;;;;;;;5027567;28;20021;-84
2023/12/08 08:32:33;;;;;;;66.10;20.10;;;;;;;;;;5026010;28;20491;-85
2023/12/08 08:34:59;;;;;;;76.17;20.10;;;;;;;;;;5030705;28;20044;-84
2023/12/08 08:37:24;;;;;;;79.43;19.43;;;;;;;;;;5029223;28;20029;-85
2023/12/08 08:39:50;;;;;;;78.18;19.85;;;;;;;;;;5026410;28;20104;-87
2023/12/08 08:42:16;;;;;;;70.93;19.80;;;;;;;;;;5030459;28;20097;-86
2023/12/08 08:44:41;;;;;;;79.75;21.35;;;;;;;;;;5026737;28;20046;-85
2023/12/08 08:47:06;;;;;;;78.20;20.50;;;;;;;;;;5011260;28;20132;-85
2023/12/08 08:49:33;;;;;;;67.03;19.13;;;;;;;;;;5029407;28;20022;-87
2023/12/08 08:51:58;;;;;;;99.90;29.65;;;;;;;;;;5025296;28;20017;-86
2023/12/08 08:54:23;;;;;;;89.27;22.13;;;;;;;;;;5018993;28;20120;-87
2023/12/08 08:56:49;;;;;;;75.17;20.50;;;;;;;;;;5026282;28;20026;-86
2023/12/08 08:59:14;;;;;;;83.67;21.53;;;;;;;;;;5026001;28;20026;-85
2023/12/08 09:01:40;;;;;;;83.13;19.90;;;;;;;;;;5017709;28;20501;-85
2023/12/08 09:04:05;;;;;;;77.43;19.60;;;;;;;;;;5028583;28;20033;-86
2023/12/08 09:06:31;;;;;;;80.30;20.50;;;;;;;;;;5032241;28;20562;-85
2023/12/08 09:08:56;;;;;;;87.17;19.67;;;;;;;;;;5029738;28;20025;-85
2023/12/08 09:11:23;;;;;;;76.77;21.33;;;;;;;;;;5027718;28;20395;-85
2023/12/08 09:13:50;;;;;;;82.03;19.15;;;;;;;;;;5029584;28;20076;-85
2023/12/08 09:16:15;;;;;;;83.23;20.53;;;;;;;;;;5029872;28;20021;-85
2023/12/08 09:18:40;;;;;;;88.43;22.93;;;;;;;;;;5029317;28;20036;-85
2023/12/08 09:21:06;;;;;;;89.82;20.23;;;;;;;;;;5028636;28;20028;-86
2023/12/08 09:23:31;;;;;;;79.97;19.83;;;;;;;;;;5030163;28;20013;-85
2023/12/08 09:25:56;;;;;;;76.87;20.07;;;;;;;;;;5028623;28;20021;-85
2023/12/08 09:28:21;;;;;;;79.13;18.30;;;;;;;;;;5015793;28;20083;-85
2023/12/08 09:30:47;;;;;;;72.00;18.30;;;;;;;;;;5009999;28;20451;-86
2023/12/08 09:33:12;;;;;;;86.00;19.77;;;;;;;;;;5028696;28;20029;-85
2023/12/08 09:35:38;;;;;;;81.43;18.80;;;;;;;;;;5025949;28;20032;-86
2023/12/08 09:38:04;;;;;;;84.30;19.80;;;;;;;;;;5019302;28;20033;-85
2023/12/08 09:40:31;;;;;;;79.78;20.08;;;;;;;;;;5020595;28;20485;-85
2023/12/08 09:42:57;;;;;;;88.28;19.83;;;;;;;;;;5029366;28;20108;-86
2023/12/08 09:45:24;;;;;;;83.93;19.07;;;;;;;;;;5028549;28;20746;-85
2023/12/08 09:47:50;;;;;;;78.22;19.38;;;;;;;;;;5029068;28;20413;-85
2023/12/08 09:50:15;;;;;;;83.88;18.42;;;;;;;;;;5028899;28;20112;-85
2023/12/08 09:52:41;;;;;;;77.63;17.63;;;;;;;;;;5029055;28;20504;-85
2023/12/08 09:55:07;;;;;;;81.90;19.20;;;;;;;;;;5009312;28;20504;-85
2023/12/08 09:57:33;;;;;;;83.82;18.42;;;;;;;;;;5027834;28;20017;-86
2023/12/08 09:59:59;;;;;;;91.93;21.50;;;;;;;;;;5028142;28;20029;-86
2023/12/08 10:02:25;;;;;;;81.65;18.10;;;;;;;;;;5029528;28;20022;-85
2023/12/08 10:04:50;;;;;;;86.07;21.10;;;;;;;;;;5028871;28;20037;-86
2023/12/08 10:07:16;;;;;;;71.27;17.27;;;;;;;;;;5028941;28;20121;-86
2023/12/08 10:09:42;;;;;;;82.88;19.33;;;;;;;;;;5026403;28;20025;-86
2023/12/08 10:12:07;;;;;;;87.53;17.37;;;;;;;;;;5024125;28;20022;-86
2023/12/08 10:14:32;;;;;;;73.87;18.70;;;;;;;;;;5028689;28;20033;-86
2023/12/08 10:16:58;;;;;;;83.73;17.50;;;;;;;;;;5020056;28;20121;-86
2023/12/08 10:19:24;;;;;;;79.43;18.30;;;;;;;;;;5026488;28;20492;-87
2023/12/08 10:24:46;;;;;;;79.82;19.27;;;;;;;;;;5318454;22;20129;-85
2023/12/08 10:27:14;;;;;;;76.50;16.80;;;;;;;;;;5037995;28;20029;-85
2023/12/08 10:29:40;;;;;;;76.82;17.05;;;;;;;;;;5034961;28;20053;-85
2023/12/08 10:32:05;;;;;;;74.53;15.97;;;;;;;;;;5039259;28;20036;-85
2023/12/08 10:34:30;;;;;;;65.33;15.67;;;;;;;;;;5027059;28;20013;-85
2023/12/08 10:36:56;;;;;;;71.63;15.53;;;;;;;;;;5026282;28;20060;-85
2023/12/08 10:39:22;;;;;;;74.60;15.93;;;;;;;;;;5028736;28;20017;-85
2023/12/08 10:41:51;;;;;;;70.72;16.25;;;;;;;;;;5022366;28;20041;-85
2023/12/08 10:44:22;;;;;;;73.43;18.45;;;;;;;;;;5012811;28;20037;-85
2023/12/08 10:46:48;;;;;;;65.80;15.18;;;;;;;;;;5033993;28;20033;-85
2023/12/08 10:49:15;;;;;;;69.00;15.90;;;;;;;;;;5027250;28;20041;-87
2023/12/08 10:51:41;;;;;;;67.13;16.23;;;;;;;;;;5022750;28;20427;-87
2023/12/08 10:54:06;;;;;;;78.00;17.00;;;;;;;;;;5038677;28;20017;-87
2023/12/08 10:56:32;;;;;;;65.80;15.63;;;;;;;;;;5032372;28;20018;-85
2023/12/08 10:59:00;;;;;;;69.93;16.63;;;;;;;;;;5032291;28;20103;-86
2023/12/08 11:01:25;;;;;;;61.28;15.25;;;;;;;;;;5010578;28;20014;-85
2023/12/08 11:03:56;;;;;;;57.40;14.63;;;;;;;;;;5031661;28;20041;-86
2023/12/08 11:06:21;;;;;;;65.68;16.20;;;;;;;;;;5031842;28;20755;-86
2023/12/08 11:08:48;;;;;;;64.20;16.35;;;;;;;;;;5032554;28;20021;-86
2023/12/08 11:11:14;;;;;;;62.10;16.27;;;;;;;;;;5026973;28;20028;-86
2023/12/08 11:13:50;;;;;;;63.30;16.90;;;;;;;;;;5030421;28;20018;-85
2023/12/08 11:16:18;;;;;;;64.43;14.75;;;;;;;;;;5033989;28;20048;-85
2023/12/08 11:18:44;;;;;;;65.30;15.82;;;;;;;;;;5041701;28;20533;-88
2023/12/08 11:21:09;;;;;;;70.00;16.30;;;;;;;;;;5031410;28;20101;-86
2023/12/08 11:23:35;;;;;;;57.03;14.98;;;;;;;;;;5035103;28;20041;-86
2023/12/08 11:26:12;;;;;;;62.90;15.60;;;;;;;;;;5036501;28;20013;-89
2023/12/08 11:28:46;;;;;;;58.38;15.32;;;;;;;;;;5033021;28;20023;-88
2023/12/08 11:31:16;;;;;;;64.43;15.20;;;;;;;;;;5031762;28;20025;-88
2023/12/08 11:34:11;;;;;;;55.83;15.05;;;;;;;;;;5029258;28;20026;-87
2023/12/08 11:36:41;;;;;;;56.58;14.90;;;;;;;;;;4981226;28;20497;-88
2023/12/08 11:39:25;;;;;;;58.83;15.90;;;;;;;;;;5021058;28;20058;-86
2023/12/08 11:41:52;;;;;;;60.08;15.82;;;;;;;;;;5030153;28;20653;-86
2023/12/08 11:44:17;;;;;;;59.63;15.50;;;;;;;;;;5033769;28;20045;-84
2023/12/08 11:46:42;;;;;;;66.63;16.03;;;;;;;;;;5036032;28;20025;-87
2023/12/08 11:49:08;;;;;;;65.87;14.80;;;;;;;;;;5031592;28;20029;-87
2023/12/08 11:51:35;;;;;;;60.97;15.13;;;;;;;;;;5029903;28;20537;-87
2023/12/08 11:54:05;;;;;;;65.35;15.27;;;;;;;;;;5030646;28;20075;-87
2023/12/08 11:56:38;;;;;;;62.50;14.48;;;;;;;;;;5031024;28;20116;-86
2023/12/08 11:59:03;;;;;;;55.40;15.32;;;;;;;;;;5039914;28;20041;-87
2023/12/08 12:01:29;;;;;;;56.73;15.73;;;;;;;;;;5028958;28;20117;-86
2023/12/08 12:03:54;;;;;;;60.07;15.10;;;;;;;;;;5037515;28;20017;-87
2023/12/08 12:06:19;;;;;;;62.53;15.73;;;;;;;;;;5042554;28;20025;-87
2023/12/08 12:08:46;;;;;;;69.47;15.97;;;;;;;;;;5029906;28;20036;-86
2023/12/08 12:11:12;;;;;;;63.00;14.70;;;;;;;;;;5011723;28;20504;-87
2023/12/08 12:13:38;;;;;;;67.20;15.27;;;;;;;;;;5037622;28;20022;-86
2023/12/08 12:16:04;;;;;;;64.18;15.75;;;;;;;;;;5029953;28;20495;-86
2023/12/08 12:18:30;;;;;;;64.23;14.97;;;;;;;;;;5030761;28;20108;-86
2023/12/08 12:20:55;;;;;;;64.15;15.35;;;;;;;;;;5029030;28;20489;-87
2023/12/08 12:23:20;;;;;;;64.83;15.43;;;;;;;;;;5033759;28;20041;-87
2023/12/08 12:25:46;;;;;;;68.47;15.93;;;;;;;;;;5033756;28;20028;-89
2023/12/08 12:28:11;;;;;;;61.72;15.73;;;;;;;;;;5036797;28;20057;-86
2023/12/08 12:30:37;;;;;;;57.87;15.70;;;;;;;;;;5027952;28;20029;-86
2023/12/08 12:33:03;;;;;;;68.47;16.47;;;;;;;;;;5042205;28;20024;-87
2023/12/08 12:35:28;;;;;;;58.00;15.65;;;;;;;;;;5047377;28;20036;-86
2023/12/08 12:37:54;;;;;;;72.80;15.97;;;;;;;;;;5029458;28;20055;-87
2023/12/08 12:40:19;;;;;;;68.30;16.00;;;;;;;;;;5023361;28;20033;-86
2023/12/08 12:42:45;;;;;;;67.73;16.67;;;;;;;;;;5038717;28;20035;-86
2023/12/08 12:45:11;;;;;;;77.28;17.50;;;;;;;;;;5023294;28;20084;-86
2023/12/08 12:47:36;;;;;;;70.40;16.42;;;;;;;;;;5029749;28;20021;-86
2023/12/08 12:50:04;;;;;;;63.83;15.20;;;;;;;;;;5023815;28;20548;-86
2023/12/08 12:52:30;;;;;;;63.60;15.90;;;;;;;;;;5023159;28;20571;-86
2023/12/08 12:54:56;;;;;;;51.73;14.43;;;;;;;;;;5022715;28;20125;-86
2023/12/08 12:57:39;;;;;;;68.70;16.70;;;;;;;;;;5023384;28;20025;-86
2023/12/08 13:00:04;;;;;;;64.37;17.00;;;;;;;;;;5024913;28;20021;-86
2023/12/08 13:02:30;;;;;;;58.85;15.60;;;;;;;;;;5013403;28;20014;-86
2023/12/08 13:04:55;;;;;;;55.23;14.13;;;;;;;;;;5029253;28;20037;-86
2023/12/08 13:07:21;;;;;;;56.83;14.95;;;;;;;;;;5029881;28;20083;-87
2023/12/08 13:09:48;;;;;;;63.33;14.07;;;;;;;;;;5029276;28;20049;-86
2023/12/08 13:12:13;;;;;;;59.53;13.73;;;;;;;;;;5035018;28;20492;-87
2023/12/08 13:14:38;;;;;;;65.53;15.10;;;;;;;;;;5015878;28;20029;-86
2023/12/08 13:17:05;;;;;;;57.33;13.67;;;;;;;;;;5040367;28;20021;-87
2023/12/08 13:19:31;;;;;;;49.58;13.68;;;;;;;;;;5012928;28;20036;-86
2023/12/08 13:21:56;;;;;;;56.50;13.60;;;;;;;;;;5028060;28;20021;-87
2023/12/08 13:24:21;;;;;;;53.60;14.27;;;;;;;;;;5041572;28;20116;-86
2023/12/08 13:26:46;;;;;;;63.93;14.33;;;;;;;;;;5030485;28;20020;-87
2023/12/08 13:29:14;;;;;;;53.80;13.83;;;;;;;;;;5033735;28;20052;-87
2023/12/08 13:31:39;;;;;;;55.42;13.10;;;;;;;;;;5020713;28;20023;-86
2023/12/08 13:34:04;;;;;;;58.17;13.03;;;;;;;;;;5011004;28;20096;-86
2023/12/08 13:36:30;;;;;;;49.17;13.37;;;;;;;;;;5031072;28;20028;-86
2023/12/08 13:38:55;;;;;;;56.93;13.60;;;;;;;;;;5033380;28;20062;-86
2023/12/08 13:41:20;;;;;;;51.73;12.13;;;;;;;;;;5029204;28;20295;-87
2023/12/08 13:43:45;;;;;;;46.23;13.17;;;;;;;;;;5164258;22;20033;-87
2023/12/08 13:46:10;;;;;;;54.37;11.83;;;;;;;;;;5045105;28;20025;-87
2023/12/08 13:48:36;;;;;;;46.47;11.87;;;;;;;;;;5040157;28;20473;-88
2023/12/08 13:51:01;;;;;;;50.07;14.43;;;;;;;;;;5030809;28;20389;-87
2023/12/08 13:53:26;;;;;;;55.40;13.40;;;;;;;;;;5032386;28;20512;-87
2023/12/08 13:55:53;;;;;;;45.20;11.90;;;;;;;;;;5028076;28;20494;-89
2023/12/08 13:58:19;;;;;;;50.08;13.65;;;;;;;;;;5008798;28;20018;-87
2023/12/08 14:00:44;;;;;;;42.67;12.60;;;;;;;;;;5017908;28;20115;-85
2023/12/08 14:03:09;;;;;;;52.50;12.20;;;;;;;;;;5023992;28;20117;-86
2023/12/08 14:05:35;;;;;;;50.87;12.90;;;;;;;;;;5024537;28;20132;-86
2023/12/08 14:08:01;;;;;;;41.33;12.43;;;;;;;;;;5000836;28;20029;-87
2023/12/08 14:10:26;;;;;;;44.50;11.88;;;;;;;;;;5024547;28;20028;-86
2023/12/08 14:12:52;;;;;;;41.33;11.53;;;;;;;;;;5021194;28;20014;-83